sensor_id;sensor_type;location;lat;lon;timestamp;P1;durP1;ratioP1;P2;durP2;ratioP2
18526;SDS011;9393;42.158;24.748;2022-09-09T00:00:12;11.32;;;6.70;;
18526;SDS011;9393;42.158;24.748;2022-09-09T00:03:19;11.23;;;6.47;;
18526;SDS011;9393;42.158;24.748;2022-09-09T00:06:29;10.07;;;6.47;;
18526;SDS011;9393;42.158;24.748;2022-09-09T00:09:39;11.40;;;6.32;;
18526;SDS011;9393;42.158;24.748;2022-09-09T00:12:49;9.52;;;6.70;;
18526;SDS011;9393;42.158;24.748;2022-09-09T00:16:02;7.90;;;6.38;;
18526;SDS011;9393;42.158;24.748;2022-09-09T00:19:15;8.77;;;5.90;;
18526;SDS011;9393;42.158;24.748;2022-09-09T00:22:25;9.77;;;6.05;;
18526;SDS011;9393;42.158;24.748;2022-09-09T00:25:31;9.82;;;5.97;;
18526;SDS011;9393;42.158;24.748;2022-09-09T00:28:41;11.82;;;6.43;;
18526;SDS011;9393;42.158;24.748;2022-09-09T00:31:51;9.38;;;6.53;;
18526;SDS011;9393;42.158;24.748;2022-09-09T00:35:03;9.10;;;5.80;;
18526;SDS011;9393;42.158;24.748;2022-09-09T00:38:20;9.98;;;5.90;;
18526;SDS011;9393;42.158;24.748;2022-09-09T00:41:30;10.80;;;6.80;;
18526;SDS011;9393;42.158;24.748;2022-09-09T00:44:49;9.50;;;5.82;;
18526;SDS011;9393;42.158;24.748;2022-09-09T00:47:55;10.43;;;6.03;;
18526;SDS011;9393;42.158;24.748;2022-09-09T00:51:01;9.02;;;6.32;;
18526;SDS011;9393;42.158;24.748;2022-09-09T00:54:15;11.68;;;6.53;;
18526;SDS011;9393;42.158;24.748;2022-09-09T00:57:39;11.38;;;6.00;;
18526;SDS011;9393;42.158;24.748;2022-09-09T01:00:43;14.00;;;6.78;;
18526;SDS011;9393;42.158;24.748;2022-09-09T01:03:51;8.98;;;6.78;;
18526;SDS011;9393;42.158;24.748;2022-09-09T01:06:59;12.30;;;7.10;;
18526;SDS011;9393;42.158;24.748;2022-09-09T01:10:11;14.43;;;7.15;;
18526;SDS011;9393;42.158;24.748;2022-09-09T01:13:24;9.55;;;6.70;;
18526;SDS011;9393;42.158;24.748;2022-09-09T01:16:34;9.93;;;6.78;;
18526;SDS011;9393;42.158;24.748;2022-09-09T01:19:40;8.85;;;7.00;;
18526;SDS011;9393;42.158;24.748;2022-09-09T01:23:10;7.20;;;6.45;;
18526;SDS011;9393;42.158;24.748;2022-09-09T01:27:04;7.68;;;6.20;;
18526;SDS011;9393;42.158;24.748;2022-09-09T01:30:10;11.15;;;7.10;;
18526;SDS011;9393;42.158;24.748;2022-09-09T01:33:17;12.38;;;7.18;;
18526;SDS011;9393;42.158;24.748;2022-09-09T01:36:26;10.95;;;6.72;;
18526;SDS011;9393;42.158;24.748;2022-09-09T01:39:36;9.85;;;6.28;;
18526;SDS011;9393;42.158;24.748;2022-09-09T01:42:46;7.43;;;6.10;;
18526;SDS011;9393;42.158;24.748;2022-09-09T01:45:50;15.63;;;6.60;;
18526;SDS011;9393;42.158;24.748;2022-09-09T01:48:57;10.23;;;6.35;;
18526;SDS011;9393;42.158;24.748;2022-09-09T01:52:03;9.02;;;6.65;;
18526;SDS011;9393;42.158;24.748;2022-09-09T01:55:11;11.35;;;5.97;;
18526;SDS011;9393;42.158;24.748;2022-09-09T01:58:22;10.40;;;5.20;;
18526;SDS011;9393;42.158;24.748;2022-09-09T02:01:39;10.30;;;5.25;;
18526;SDS011;9393;42.158;24.748;2022-09-09T02:04:55;6.38;;;5.07;;
18526;SDS011;9393;42.158;24.748;2022-09-09T02:08:06;9.45;;;5.47;;
18526;SDS011;9393;42.158;24.748;2022-09-09T02:11:22;8.00;;;5.30;;
18526;SDS011;9393;42.158;24.748;2022-09-09T02:14:49;6.97;;;4.75;;
18526;SDS011;9393;42.158;24.748;2022-09-09T02:18:00;10.38;;;5.43;;
18526;SDS011;9393;42.158;24.748;2022-09-09T02:21:09;11.32;;;5.57;;
18526;SDS011;9393;42.158;24.748;2022-09-09T02:24:16;8.38;;;5.35;;
18526;SDS011;9393;42.158;24.748;2022-09-09T02:27:27;8.07;;;5.63;;
18526;SDS011;9393;42.158;24.748;2022-09-09T02:30:32;6.82;;;5.93;;
18526;SDS011;9393;42.158;24.748;2022-09-09T02:33:38;11.02;;;6.40;;
18526;SDS011;9393;42.158;24.748;2022-09-09T02:36:45;11.10;;;7.93;;
18526;SDS011;9393;42.158;24.748;2022-09-09T02:39:52;12.13;;;7.82;;
18526;SDS011;9393;42.158;24.748;2022-09-09T02:42:56;15.10;;;8.73;;
18526;SDS011;9393;42.158;24.748;2022-09-09T02:46:07;13.68;;;8.02;;
18526;SDS011;9393;42.158;24.748;2022-09-09T02:49:22;11.82;;;8.57;;
18526;SDS011;9393;42.158;24.748;2022-09-09T02:52:38;12.90;;;8.63;;
18526;SDS011;9393;42.158;24.748;2022-09-09T02:55:52;12.55;;;8.32;;
18526;SDS011;9393;42.158;24.748;2022-09-09T02:59:02;16.35;;;7.68;;
18526;SDS011;9393;42.158;24.748;2022-09-09T03:02:09;10.63;;;7.97;;
18526;SDS011;9393;42.158;24.748;2022-09-09T03:05:15;10.88;;;7.28;;
18526;SDS011;9393;42.158;24.748;2022-09-09T03:08:19;10.50;;;7.20;;
18526;SDS011;9393;42.158;24.748;2022-09-09T03:11:22;7.45;;;6.38;;
18526;SDS011;9393;42.158;24.748;2022-09-09T03:14:25;11.30;;;6.60;;
18526;SDS011;9393;42.158;24.748;2022-09-09T03:17:31;10.75;;;6.22;;
18526;SDS011;9393;42.158;24.748;2022-09-09T03:20:34;11.32;;;5.72;;
18526;SDS011;9393;42.158;24.748;2022-09-09T03:23:37;10.57;;;7.38;;
18526;SDS011;9393;42.158;24.748;2022-09-09T03:26:41;11.18;;;6.00;;
18526;SDS011;9393;42.158;24.748;2022-09-09T03:29:49;12.13;;;6.68;;
18526;SDS011;9393;42.158;24.748;2022-09-09T03:32:58;12.90;;;6.28;;
18526;SDS011;9393;42.158;24.748;2022-09-09T03:36:05;10.18;;;8.07;;
18526;SDS011;9393;42.158;24.748;2022-09-09T03:39:09;13.50;;;9.40;;
18526;SDS011;9393;42.158;24.748;2022-09-09T03:42:16;16.92;;;9.35;;
18526;SDS011;9393;42.158;24.748;2022-09-09T03:45:24;15.68;;;8.85;;
18526;SDS011;9393;42.158;24.748;2022-09-09T03:48:29;15.63;;;9.68;;
18526;SDS011;9393;42.158;24.748;2022-09-09T03:51:33;16.05;;;9.57;;
18526;SDS011;9393;42.158;24.748;2022-09-09T03:54:39;18.67;;;10.52;;
18526;SDS011;9393;42.158;24.748;2022-09-09T03:57:44;19.92;;;10.45;;
18526;SDS011;9393;42.158;24.748;2022-09-09T04:00:52;13.70;;;9.13;;
18526;SDS011;9393;42.158;24.748;2022-09-09T04:03:58;16.38;;;9.73;;
18526;SDS011;9393;42.158;24.748;2022-09-09T04:07:03;16.17;;;10.02;;
18526;SDS011;9393;42.158;24.748;2022-09-09T04:10:08;15.07;;;9.88;;
18526;SDS011;9393;42.158;24.748;2022-09-09T04:13:13;14.65;;;10.00;;
18526;SDS011;9393;42.158;24.748;2022-09-09T04:16:17;13.68;;;9.73;;
18526;SDS011;9393;42.158;24.748;2022-09-09T04:19:23;14.23;;;10.18;;
18526;SDS011;9393;42.158;24.748;2022-09-09T04:22:27;16.58;;;10.50;;
18526;SDS011;9393;42.158;24.748;2022-09-09T04:25:31;13.23;;;9.68;;
18526;SDS011;9393;42.158;24.748;2022-09-09T04:28:36;24.08;;;10.38;;
18526;SDS011;9393;42.158;24.748;2022-09-09T04:31:46;16.70;;;9.80;;
18526;SDS011;9393;42.158;24.748;2022-09-09T04:34:50;21.65;;;10.93;;
18526;SDS011;9393;42.158;24.748;2022-09-09T04:37:54;15.65;;;10.05;;
18526;SDS011;9393;42.158;24.748;2022-09-09T04:40:57;12.35;;;10.25;;
18526;SDS011;9393;42.158;24.748;2022-09-09T04:44:01;14.98;;;10.48;;
18526;SDS011;9393;42.158;24.748;2022-09-09T04:47:06;16.27;;;10.15;;
18526;SDS011;9393;42.158;24.748;2022-09-09T04:50:11;13.63;;;10.07;;
18526;SDS011;9393;42.158;24.748;2022-09-09T04:53:15;18.33;;;10.35;;
18526;SDS011;9393;42.158;24.748;2022-09-09T04:56:19;14.38;;;10.32;;
18526;SDS011;9393;42.158;24.748;2022-09-09T04:59:28;15.02;;;9.77;;
18526;SDS011;9393;42.158;24.748;2022-09-09T05:02:36;12.80;;;9.70;;
18526;SDS011;9393;42.158;24.748;2022-09-09T05:05:42;14.23;;;9.23;;
18526;SDS011;9393;42.158;24.748;2022-09-09T05:08:46;14.82;;;9.73;;
18526;SDS011;9393;42.158;24.748;2022-09-09T05:11:52;10.73;;;9.20;;
18526;SDS011;9393;42.158;24.748;2022-09-09T05:15:01;12.93;;;8.55;;
18526;SDS011;9393;42.158;24.748;2022-09-09T05:18:04;15.60;;;9.02;;
18526;SDS011;9393;42.158;24.748;2022-09-09T05:21:10;12.93;;;9.35;;
18526;SDS011;9393;42.158;24.748;2022-09-09T05:24:13;12.15;;;8.85;;
18526;SDS011;9393;42.158;24.748;2022-09-09T05:27:18;12.55;;;7.72;;
18526;SDS011;9393;42.158;24.748;2022-09-09T05:30:23;10.30;;;7.85;;
18526;SDS011;9393;42.158;24.748;2022-09-09T05:33:28;11.77;;;9.30;;
18526;SDS011;9393;42.158;24.748;2022-09-09T05:36:33;13.93;;;8.90;;
18526;SDS011;9393;42.158;24.748;2022-09-09T05:39:36;9.43;;;8.40;;
18526;SDS011;9393;42.158;24.748;2022-09-09T05:42:40;11.07;;;8.23;;
18526;SDS011;9393;42.158;24.748;2022-09-09T05:45:43;18.88;;;9.52;;
18526;SDS011;9393;42.158;24.748;2022-09-09T05:48:49;12.93;;;8.45;;
18526;SDS011;9393;42.158;24.748;2022-09-09T05:51:57;14.13;;;8.63;;
18526;SDS011;9393;42.158;24.748;2022-09-09T05:55:00;12.10;;;8.27;;
18526;SDS011;9393;42.158;24.748;2022-09-09T05:58:05;14.52;;;8.52;;
18526;SDS011;9393;42.158;24.748;2022-09-09T06:01:10;15.32;;;7.88;;
18526;SDS011;9393;42.158;24.748;2022-09-09T06:04:16;11.70;;;8.60;;
18526;SDS011;9393;42.158;24.748;2022-09-09T06:07:20;17.00;;;8.15;;
18526;SDS011;9393;42.158;24.748;2022-09-09T06:10:24;11.77;;;7.30;;
18526;SDS011;9393;42.158;24.748;2022-09-09T06:13:28;8.13;;;6.88;;
18526;SDS011;9393;42.158;24.748;2022-09-09T06:16:31;11.68;;;8.13;;
18526;SDS011;9393;42.158;24.748;2022-09-09T06:19:36;11.07;;;7.97;;
18526;SDS011;9393;42.158;24.748;2022-09-09T06:22:42;10.13;;;7.32;;
18526;SDS011;9393;42.158;24.748;2022-09-09T06:25:48;15.13;;;6.97;;
18526;SDS011;9393;42.158;24.748;2022-09-09T06:28:53;11.15;;;7.32;;
18526;SDS011;9393;42.158;24.748;2022-09-09T06:31:58;10.32;;;7.40;;
18526;SDS011;9393;42.158;24.748;2022-09-09T06:35:02;11.52;;;7.28;;
18526;SDS011;9393;42.158;24.748;2022-09-09T06:38:07;12.70;;;6.68;;
18526;SDS011;9393;42.158;24.748;2022-09-09T06:41:12;16.02;;;7.35;;
18526;SDS011;9393;42.158;24.748;2022-09-09T06:44:18;10.73;;;7.20;;
18526;SDS011;9393;42.158;24.748;2022-09-09T06:47:22;13.68;;;8.40;;
18526;SDS011;9393;42.158;24.748;2022-09-09T06:50:27;10.38;;;7.78;;
18526;SDS011;9393;42.158;24.748;2022-09-09T06:53:32;13.15;;;7.90;;
18526;SDS011;9393;42.158;24.748;2022-09-09T06:56:37;11.60;;;8.43;;
18526;SDS011;9393;42.158;24.748;2022-09-09T06:59:49;13.75;;;8.63;;
18526;SDS011;9393;42.158;24.748;2022-09-09T07:02:54;10.57;;;7.88;;
18526;SDS011;9393;42.158;24.748;2022-09-09T07:05:57;15.52;;;8.55;;
18526;SDS011;9393;42.158;24.748;2022-09-09T07:09:04;12.05;;;8.15;;
18526;SDS011;9393;42.158;24.748;2022-09-09T07:12:08;15.80;;;8.80;;
18526;SDS011;9393;42.158;24.748;2022-09-09T07:15:17;14.57;;;9.32;;
18526;SDS011;9393;42.158;24.748;2022-09-09T07:18:21;11.48;;;8.65;;
18526;SDS011;9393;42.158;24.748;2022-09-09T07:21:25;16.25;;;9.00;;
18526;SDS011;9393;42.158;24.748;2022-09-09T07:24:30;12.15;;;8.48;;
18526;SDS011;9393;42.158;24.748;2022-09-09T07:27:34;13.80;;;8.48;;
18526;SDS011;9393;42.158;24.748;2022-09-09T07:30:38;13.20;;;7.50;;
18526;SDS011;9393;42.158;24.748;2022-09-09T07:33:44;13.85;;;8.10;;
18526;SDS011;9393;42.158;24.748;2022-09-09T07:36:48;12.98;;;7.93;;
18526;SDS011;9393;42.158;24.748;2022-09-09T07:39:54;11.77;;;7.53;;
18526;SDS011;9393;42.158;24.748;2022-09-09T07:42:57;10.85;;;6.95;;
18526;SDS011;9393;42.158;24.748;2022-09-09T07:46:01;9.15;;;7.65;;
18526;SDS011;9393;42.158;24.748;2022-09-09T07:49:05;11.60;;;6.93;;
18526;SDS011;9393;42.158;24.748;2022-09-09T07:52:09;15.70;;;7.07;;
18526;SDS011;9393;42.158;24.748;2022-09-09T07:55:21;12.52;;;7.60;;
18526;SDS011;9393;42.158;24.748;2022-09-09T07:58:27;11.98;;;7.40;;
18526;SDS011;9393;42.158;24.748;2022-09-09T08:01:33;10.15;;;6.47;;
18526;SDS011;9393;42.158;24.748;2022-09-09T08:04:42;11.05;;;5.93;;
18526;SDS011;9393;42.158;24.748;2022-09-09T08:07:46;10.88;;;6.05;;
18526;SDS011;9393;42.158;24.748;2022-09-09T08:10:51;9.43;;;6.60;;
18526;SDS011;9393;42.158;24.748;2022-09-09T08:13:55;16.67;;;9.77;;
18526;SDS011;9393;42.158;24.748;2022-09-09T08:17:03;9.15;;;5.43;;
18526;SDS011;9393;42.158;24.748;2022-09-09T08:20:08;12.57;;;5.40;;
18526;SDS011;9393;42.158;24.748;2022-09-09T08:23:12;10.73;;;5.90;;
18526;SDS011;9393;42.158;24.748;2022-09-09T08:26:19;10.98;;;5.80;;
18526;SDS011;9393;42.158;24.748;2022-09-09T08:29:24;8.30;;;5.55;;
18526;SDS011;9393;42.158;24.748;2022-09-09T08:32:31;9.00;;;5.80;;
18526;SDS011;9393;42.158;24.748;2022-09-09T08:35:34;13.13;;;6.15;;
18526;SDS011;9393;42.158;24.748;2022-09-09T08:38:37;8.40;;;5.80;;
18526;SDS011;9393;42.158;24.748;2022-09-09T08:45:28;9.65;;;5.65;;
18526;SDS011;9393;42.158;24.748;2022-09-09T08:48:50;7.20;;;5.82;;
18526;SDS011;9393;42.158;24.748;2022-09-09T08:52:00;9.15;;;6.55;;
18526;SDS011;9393;42.158;24.748;2022-09-09T08:55:10;8.18;;;5.63;;
18526;SDS011;9393;42.158;24.748;2022-09-09T08:58:25;7.63;;;5.93;;
18526;SDS011;9393;42.158;24.748;2022-09-09T09:01:47;13.68;;;6.03;;
18526;SDS011;9393;42.158;24.748;2022-09-09T09:05:11;9.43;;;6.28;;
18526;SDS011;9393;42.158;24.748;2022-09-09T09:08:25;8.43;;;5.82;;
18526;SDS011;9393;42.158;24.748;2022-09-09T09:11:35;9.65;;;5.78;;
18526;SDS011;9393;42.158;24.748;2022-09-09T09:14:41;10.80;;;6.28;;
18526;SDS011;9393;42.158;24.748;2022-09-09T09:17:47;9.13;;;6.10;;
18526;SDS011;9393;42.158;24.748;2022-09-09T09:20:54;11.63;;;5.55;;
18526;SDS011;9393;42.158;24.748;2022-09-09T09:24:07;10.75;;;6.00;;
18526;SDS011;9393;42.158;24.748;2022-09-09T09:27:26;11.73;;;6.32;;
18526;SDS011;9393;42.158;24.748;2022-09-09T09:30:38;11.43;;;6.53;;
18526;SDS011;9393;42.158;24.748;2022-09-09T09:33:46;9.98;;;6.10;;
18526;SDS011;9393;42.158;24.748;2022-09-09T09:36:54;16.88;;;5.82;;
18526;SDS011;9393;42.158;24.748;2022-09-09T09:40:09;9.90;;;5.70;;
18526;SDS011;9393;42.158;24.748;2022-09-09T09:43:16;13.40;;;6.78;;
18526;SDS011;9393;42.158;24.748;2022-09-09T09:46:25;12.00;;;6.07;;
18526;SDS011;9393;42.158;24.748;2022-09-09T09:49:38;17.48;;;7.00;;
18526;SDS011;9393;42.158;24.748;2022-09-09T09:52:42;11.80;;;6.78;;
18526;SDS011;9393;42.158;24.748;2022-09-09T09:55:57;8.40;;;6.20;;
18526;SDS011;9393;42.158;24.748;2022-09-09T09:59:04;14.77;;;6.93;;
18526;SDS011;9393;42.158;24.748;2022-09-09T10:02:31;12.45;;;6.95;;
18526;SDS011;9393;42.158;24.748;2022-09-09T10:05:45;13.05;;;7.43;;
18526;SDS011;9393;42.158;24.748;2022-09-09T10:08:50;9.63;;;6.72;;
18526;SDS011;9393;42.158;24.748;2022-09-09T10:11:55;11.93;;;7.13;;
18526;SDS011;9393;42.158;24.748;2022-09-09T10:15:07;12.32;;;7.32;;
18526;SDS011;9393;42.158;24.748;2022-09-09T10:18:34;18.27;;;6.60;;
18526;SDS011;9393;42.158;24.748;2022-09-09T10:21:49;11.18;;;7.00;;
18526;SDS011;9393;42.158;24.748;2022-09-09T10:28:48;9.73;;;7.00;;
18526;SDS011;9393;42.158;24.748;2022-09-09T10:32:05;8.88;;;7.13;;
18526;SDS011;9393;42.158;24.748;2022-09-09T10:35:27;13.85;;;6.10;;
18526;SDS011;9393;42.158;24.748;2022-09-09T10:38:36;10.27;;;6.78;;
18526;SDS011;9393;42.158;24.748;2022-09-09T10:41:44;11.30;;;6.90;;
18526;SDS011;9393;42.158;24.748;2022-09-09T10:45:00;8.10;;;6.22;;
18526;SDS011;9393;42.158;24.748;2022-09-09T10:48:36;12.35;;;9.00;;
18526;SDS011;9393;42.158;24.748;2022-09-09T10:52:00;11.80;;;7.00;;
18526;SDS011;9393;42.158;24.748;2022-09-09T10:55:10;10.63;;;6.80;;
18526;SDS011;9393;42.158;24.748;2022-09-09T10:58:18;9.07;;;6.25;;
18526;SDS011;9393;42.158;24.748;2022-09-09T11:01:28;6.55;;;5.95;;
18526;SDS011;9393;42.158;24.748;2022-09-09T11:04:38;11.82;;;6.57;;
18526;SDS011;9393;42.158;24.748;2022-09-09T11:07:47;13.27;;;6.72;;
18526;SDS011;9393;42.158;24.748;2022-09-09T11:10:56;10.73;;;6.82;;
18526;SDS011;9393;42.158;24.748;2022-09-09T11:14:03;11.43;;;6.93;;
18526;SDS011;9393;42.158;24.748;2022-09-09T11:17:15;10.05;;;6.82;;
18526;SDS011;9393;42.158;24.748;2022-09-09T11:20:22;8.25;;;5.72;;
18526;SDS011;9393;42.158;24.748;2022-09-09T11:23:29;10.70;;;5.97;;
18526;SDS011;9393;42.158;24.748;2022-09-09T11:26:44;7.05;;;5.40;;
18526;SDS011;9393;42.158;24.748;2022-09-09T11:33:50;9.45;;;5.63;;
18526;SDS011;9393;42.158;24.748;2022-09-09T11:37:05;9.77;;;5.43;;
18526;SDS011;9393;42.158;24.748;2022-09-09T11:40:18;9.13;;;6.30;;
18526;SDS011;9393;42.158;24.748;2022-09-09T11:43:27;9.43;;;5.88;;
18526;SDS011;9393;42.158;24.748;2022-09-09T11:46:33;7.88;;;5.38;;
18526;SDS011;9393;42.158;24.748;2022-09-09T11:49:41;7.43;;;5.05;;
18526;SDS011;9393;42.158;24.748;2022-09-09T11:52:46;10.20;;;5.13;;
18526;SDS011;9393;42.158;24.748;2022-09-09T11:56:06;5.97;;;5.03;;
18526;SDS011;9393;42.158;24.748;2022-09-09T11:59:19;6.80;;;5.07;;
18526;SDS011;9393;42.158;24.748;2022-09-09T12:02:25;8.65;;;5.30;;
18526;SDS011;9393;42.158;24.748;2022-09-09T12:05:36;8.00;;;4.90;;
18526;SDS011;9393;42.158;24.748;2022-09-09T12:08:43;9.95;;;5.68;;
18526;SDS011;9393;42.158;24.748;2022-09-09T12:11:50;11.13;;;5.60;;
18526;SDS011;9393;42.158;24.748;2022-09-09T12:14:55;8.13;;;4.60;;
18526;SDS011;9393;42.158;24.748;2022-09-09T12:18:01;6.75;;;5.28;;
18526;SDS011;9393;42.158;24.748;2022-09-09T12:21:06;8.38;;;4.90;;
18526;SDS011;9393;42.158;24.748;2022-09-09T12:24:20;11.65;;;5.70;;
18526;SDS011;9393;42.158;24.748;2022-09-09T12:27:33;12.00;;;5.28;;
18526;SDS011;9393;42.158;24.748;2022-09-09T12:30:46;8.65;;;5.18;;
18526;SDS011;9393;42.158;24.748;2022-09-09T12:34:02;8.32;;;5.35;;
18526;SDS011;9393;42.158;24.748;2022-09-09T12:37:17;10.30;;;5.40;;
18526;SDS011;9393;42.158;24.748;2022-09-09T12:40:29;7.68;;;5.10;;
18526;SDS011;9393;42.158;24.748;2022-09-09T12:43:38;5.65;;;5.10;;
18526;SDS011;9393;42.158;24.748;2022-09-09T12:46:41;9.73;;;5.25;;
18526;SDS011;9393;42.158;24.748;2022-09-09T12:49:48;8.02;;;5.43;;
18526;SDS011;9393;42.158;24.748;2022-09-09T12:52:53;8.27;;;5.60;;
18526;SDS011;9393;42.158;24.748;2022-09-09T12:55:59;9.23;;;5.20;;
18526;SDS011;9393;42.158;24.748;2022-09-09T12:59:17;6.60;;;5.15;;
18526;SDS011;9393;42.158;24.748;2022-09-09T13:02:26;8.73;;;5.22;;
18526;SDS011;9393;42.158;24.748;2022-09-09T13:05:34;9.52;;;6.03;;
18526;SDS011;9393;42.158;24.748;2022-09-09T13:08:40;11.77;;;5.68;;
18526;SDS011;9393;42.158;24.748;2022-09-09T13:11:45;8.70;;;5.80;;
18526;SDS011;9393;42.158;24.748;2022-09-09T13:14:53;9.45;;;5.57;;
18526;SDS011;9393;42.158;24.748;2022-09-09T13:17:59;7.60;;;5.72;;
18526;SDS011;9393;42.158;24.748;2022-09-09T13:21:07;9.52;;;5.90;;
18526;SDS011;9393;42.158;24.748;2022-09-09T13:24:22;10.13;;;6.10;;
18526;SDS011;9393;42.158;24.748;2022-09-09T13:27:32;6.25;;;5.60;;
18526;SDS011;9393;42.158;24.748;2022-09-09T13:30:41;9.20;;;5.65;;
18526;SDS011;9393;42.158;24.748;2022-09-09T13:33:46;12.52;;;6.10;;
18526;SDS011;9393;42.158;24.748;2022-09-09T13:36:49;10.23;;;6.13;;
18526;SDS011;9393;42.158;24.748;2022-09-09T13:39:59;11.88;;;5.55;;
18526;SDS011;9393;42.158;24.748;2022-09-09T13:43:04;9.93;;;5.90;;
18526;SDS011;9393;42.158;24.748;2022-09-09T13:46:23;9.90;;;5.85;;
18526;SDS011;9393;42.158;24.748;2022-09-09T13:49:31;8.77;;;5.63;;
18526;SDS011;9393;42.158;24.748;2022-09-09T13:52:35;8.65;;;5.88;;
18526;SDS011;9393;42.158;24.748;2022-09-09T13:55:38;9.82;;;5.97;;
18526;SDS011;9393;42.158;24.748;2022-09-09T13:58:41;8.43;;;5.50;;
18526;SDS011;9393;42.158;24.748;2022-09-09T14:01:46;9.02;;;5.70;;
18526;SDS011;9393;42.158;24.748;2022-09-09T14:04:50;8.75;;;5.88;;
18526;SDS011;9393;42.158;24.748;2022-09-09T14:07:56;14.02;;;6.13;;
18526;SDS011;9393;42.158;24.748;2022-09-09T14:11:02;8.63;;;6.32;;
18526;SDS011;9393;42.158;24.748;2022-09-09T14:14:11;11.13;;;5.78;;
18526;SDS011;9393;42.158;24.748;2022-09-09T14:17:22;6.90;;;5.82;;
18526;SDS011;9393;42.158;24.748;2022-09-09T14:20:26;10.30;;;6.25;;
18526;SDS011;9393;42.158;24.748;2022-09-09T14:23:29;10.65;;;7.00;;
18526;SDS011;9393;42.158;24.748;2022-09-09T14:26:33;12.30;;;7.47;;
18526;SDS011;9393;42.158;24.748;2022-09-09T14:29:37;11.07;;;7.65;;
18526;SDS011;9393;42.158;24.748;2022-09-09T14:32:41;11.15;;;6.97;;
18526;SDS011;9393;42.158;24.748;2022-09-09T14:35:45;8.15;;;6.70;;
18526;SDS011;9393;42.158;24.748;2022-09-09T14:38:48;9.93;;;7.18;;
18526;SDS011;9393;42.158;24.748;2022-09-09T14:41:51;9.40;;;6.80;;
18526;SDS011;9393;42.158;24.748;2022-09-09T14:44:55;12.15;;;8.10;;
18526;SDS011;9393;42.158;24.748;2022-09-09T14:47:59;11.13;;;7.05;;
18526;SDS011;9393;42.158;24.748;2022-09-09T14:51:06;9.55;;;6.90;;
18526;SDS011;9393;42.158;24.748;2022-09-09T14:54:10;8.88;;;7.05;;
18526;SDS011;9393;42.158;24.748;2022-09-09T14:57:14;11.05;;;7.50;;
18526;SDS011;9393;42.158;24.748;2022-09-09T15:00:17;12.77;;;6.72;;
18526;SDS011;9393;42.158;24.748;2022-09-09T15:03:22;12.02;;;7.00;;
18526;SDS011;9393;42.158;24.748;2022-09-09T15:06:26;14.38;;;8.40;;
18526;SDS011;9393;42.158;24.748;2022-09-09T15:09:32;14.48;;;8.60;;
18526;SDS011;9393;42.158;24.748;2022-09-09T15:12:35;17.15;;;8.90;;
18526;SDS011;9393;42.158;24.748;2022-09-09T15:15:39;10.77;;;8.05;;
18526;SDS011;9393;42.158;24.748;2022-09-09T15:18:44;15.13;;;7.85;;
18526;SDS011;9393;42.158;24.748;2022-09-09T15:21:48;16.55;;;8.68;;
18526;SDS011;9393;42.158;24.748;2022-09-09T15:24:51;13.23;;;9.38;;
18526;SDS011;9393;42.158;24.748;2022-09-09T15:27:55;10.75;;;7.70;;
18526;SDS011;9393;42.158;24.748;2022-09-09T15:30:58;13.77;;;7.68;;
18526;SDS011;9393;42.158;24.748;2022-09-09T15:34:09;14.52;;;7.95;;
18526;SDS011;9393;42.158;24.748;2022-09-09T15:37:12;16.33;;;7.63;;
18526;SDS011;9393;42.158;24.748;2022-09-09T15:40:16;10.93;;;7.63;;
18526;SDS011;9393;42.158;24.748;2022-09-09T15:43:19;14.15;;;7.55;;
18526;SDS011;9393;42.158;24.748;2022-09-09T15:46:24;14.80;;;6.90;;
18526;SDS011;9393;42.158;24.748;2022-09-09T15:49:30;12.23;;;7.28;;
18526;SDS011;9393;42.158;24.748;2022-09-09T15:52:34;13.57;;;6.90;;
18526;SDS011;9393;42.158;24.748;2022-09-09T15:55:37;15.98;;;9.35;;
18526;SDS011;9393;42.158;24.748;2022-09-09T15:58:40;13.05;;;8.23;;
18526;SDS011;9393;42.158;24.748;2022-09-09T16:01:44;10.55;;;6.68;;
18526;SDS011;9393;42.158;24.748;2022-09-09T16:04:49;10.07;;;6.47;;
18526;SDS011;9393;42.158;24.748;2022-09-09T16:07:52;10.80;;;6.30;;
18526;SDS011;9393;42.158;24.748;2022-09-09T16:10:56;13.02;;;6.75;;
18526;SDS011;9393;42.158;24.748;2022-09-09T16:13:59;10.32;;;6.18;;
18526;SDS011;9393;42.158;24.748;2022-09-09T16:17:03;12.70;;;5.90;;
18526;SDS011;9393;42.158;24.748;2022-09-09T16:20:09;9.77;;;6.13;;
18526;SDS011;9393;42.158;24.748;2022-09-09T16:23:13;12.63;;;6.25;;
18526;SDS011;9393;42.158;24.748;2022-09-09T16:26:17;10.10;;;6.55;;
18526;SDS011;9393;42.158;24.748;2022-09-09T16:29:21;15.10;;;6.53;;
18526;SDS011;9393;42.158;24.748;2022-09-09T16:32:25;11.25;;;7.18;;
18526;SDS011;9393;42.158;24.748;2022-09-09T16:35:30;13.50;;;6.95;;
18526;SDS011;9393;42.158;24.748;2022-09-09T16:38:33;8.15;;;5.95;;
18526;SDS011;9393;42.158;24.748;2022-09-09T16:41:37;8.00;;;6.20;;
18526;SDS011;9393;42.158;24.748;2022-09-09T16:44:41;14.63;;;6.28;;
18526;SDS011;9393;42.158;24.748;2022-09-09T16:47:44;11.25;;;7.25;;
18526;SDS011;9393;42.158;24.748;2022-09-09T16:50:49;11.25;;;6.82;;
18526;SDS011;9393;42.158;24.748;2022-09-09T16:53:52;16.10;;;7.20;;
18526;SDS011;9393;42.158;24.748;2022-09-09T16:56:56;14.07;;;6.88;;
18526;SDS011;9393;42.158;24.748;2022-09-09T17:00:02;11.63;;;6.47;;
18526;SDS011;9393;42.158;24.748;2022-09-09T17:03:10;12.93;;;7.32;;
18526;SDS011;9393;42.158;24.748;2022-09-09T17:06:16;15.25;;;7.60;;
18526;SDS011;9393;42.158;24.748;2022-09-09T17:09:20;19.10;;;7.65;;
18526;SDS011;9393;42.158;24.748;2022-09-09T17:12:24;10.05;;;7.07;;
18526;SDS011;9393;42.158;24.748;2022-09-09T17:15:28;21.10;;;6.78;;
18526;SDS011;9393;42.158;24.748;2022-09-09T17:18:32;11.73;;;7.30;;
18526;SDS011;9393;42.158;24.748;2022-09-09T17:21:37;12.98;;;7.47;;
18526;SDS011;9393;42.158;24.748;2022-09-09T17:25:00;18.27;;;8.60;;
18526;SDS011;9393;42.158;24.748;2022-09-09T17:28:04;15.68;;;7.57;;
18526;SDS011;9393;42.158;24.748;2022-09-09T17:31:08;12.45;;;8.13;;
18526;SDS011;9393;42.158;24.748;2022-09-09T17:34:13;13.63;;;7.75;;
18526;SDS011;9393;42.158;24.748;2022-09-09T17:37:18;18.20;;;8.40;;
18526;SDS011;9393;42.158;24.748;2022-09-09T17:40:21;13.98;;;7.03;;
18526;SDS011;9393;42.158;24.748;2022-09-09T17:43:25;13.32;;;7.53;;
18526;SDS011;9393;42.158;24.748;2022-09-09T17:46:29;15.70;;;8.32;;
18526;SDS011;9393;42.158;24.748;2022-09-09T17:49:35;13.40;;;7.55;;
18526;SDS011;9393;42.158;24.748;2022-09-09T17:52:40;15.82;;;7.78;;
18526;SDS011;9393;42.158;24.748;2022-09-09T17:55:44;12.55;;;8.05;;
18526;SDS011;9393;42.158;24.748;2022-09-09T17:58:53;15.88;;;8.32;;
18526;SDS011;9393;42.158;24.748;2022-09-09T18:01:56;13.95;;;8.07;;
18526;SDS011;9393;42.158;24.748;2022-09-09T18:04:59;16.80;;;8.70;;
18526;SDS011;9393;42.158;24.748;2022-09-09T18:08:04;15.65;;;8.13;;
18526;SDS011;9393;42.158;24.748;2022-09-09T18:11:07;13.07;;;8.65;;
18526;SDS011;9393;42.158;24.748;2022-09-09T18:14:11;15.30;;;8.90;;
18526;SDS011;9393;42.158;24.748;2022-09-09T18:17:18;14.18;;;8.18;;
18526;SDS011;9393;42.158;24.748;2022-09-09T18:20:21;17.50;;;8.23;;
18526;SDS011;9393;42.158;24.748;2022-09-09T18:23:26;17.00;;;8.63;;
18526;SDS011;9393;42.158;24.748;2022-09-09T18:26:29;13.38;;;8.45;;
18526;SDS011;9393;42.158;24.748;2022-09-09T18:29:34;15.68;;;8.80;;
18526;SDS011;9393;42.158;24.748;2022-09-09T18:32:37;18.27;;;9.57;;
18526;SDS011;9393;42.158;24.748;2022-09-09T18:35:40;17.92;;;9.80;;
18526;SDS011;9393;42.158;24.748;2022-09-09T18:38:45;17.13;;;9.43;;
18526;SDS011;9393;42.158;24.748;2022-09-09T18:41:49;20.38;;;11.15;;
18526;SDS011;9393;42.158;24.748;2022-09-09T18:44:54;17.88;;;10.68;;
18526;SDS011;9393;42.158;24.748;2022-09-09T18:47:57;12.65;;;9.70;;